Picun Leufu, Argentina
Current Conditions -  °F | °C
As of 9:00 PM on Saturday 22 Nov 2014 (Local Time) from SAZN Reporting Station
Clear Clear  
Wind Chill: 75°   Ceiling: Unl
Heat Index: 75°   Visibility: 6mi
Dew Point: 27°   Wind: 8mph
Humidity: 17%   Direction: 200°SSW
Pressure: 29.77"   Gusts: NA
Location:  39.52°S, 69.25°W
Report Text: SAZN 230000Z 20007KT CAVOK 24/M03 Q1008
Loading
Personal Weather Stations






























Interactive Weather Map New forecast layout! Learn more

10-Day Weather Forecast

Advertisements
Track Severe Weather on mobile